APC weather

Napa County Airport
Napa, California, United States

Public forecast

Using degrees Fahrenheit for public forecast. Weather courtesy of forecast.io.

METAR (pilot weather report)

Retrieved 2019/09/23 05:54 UTC (43 minutes ago):

KAPC 230554Z AUTO 19008KT 10SM CLR 18/14 A2990 RMK AO2 SLP117 T01780139 10239 20178 51013

TAF (pilot weather forecast)

Forecast is more than 12 hours old.

Retrieved 2016/02/08 00:21 UTC (4 years ago):

TAF KAPC 082320Z 0900/0924 09008KT P6SM SKC FM090600 05004KT P6SM SKC FM091900 10008KT P6SM SKC